sensor_id;sensor_type;location;lat;lon;timestamp;temperature;humidity
65146;DHT22;51730;56.950;24.126;2022-09-09T00:03:47;9.30;99.90
65146;DHT22;51730;56.950;24.126;2022-09-09T00:06:33;9.20;99.90
65146;DHT22;51730;56.950;24.126;2022-09-09T00:09:12;9.30;99.90
65146;DHT22;51730;56.950;24.126;2022-09-09T00:11:52;9.30;99.90
65146;DHT22;51730;56.950;24.126;2022-09-09T00:14:31;9.20;99.90
65146;DHT22;51730;56.950;24.126;2022-09-09T00:17:12;9.30;99.90
65146;DHT22;51730;56.950;24.126;2022-09-09T00:19:46;9.10;99.90
65146;DHT22;51730;56.950;24.126;2022-09-09T00:22:20;9.20;99.90
65146;DHT22;51730;56.950;24.126;2022-09-09T00:24:55;9.10;99.90
65146;DHT22;51730;56.950;24.126;2022-09-09T00:27:38;9.20;99.90
65146;DHT22;51730;56.950;24.126;2022-09-09T00:30:22;9.10;99.90
65146;DHT22;51730;56.950;24.126;2022-09-09T00:33:01;9.00;99.90
65146;DHT22;51730;56.950;24.126;2022-09-09T00:35:37;9.00;99.90
65146;DHT22;51730;56.950;24.126;2022-09-09T00:38:16;9.10;99.90
65146;DHT22;51730;56.950;24.126;2022-09-09T00:41:22;9.00;99.90
65146;DHT22;51730;56.950;24.126;2022-09-09T00:57:42;8.90;99.90
65146;DHT22;51730;56.950;24.126;2022-09-09T01:00:19;8.90;99.90
65146;DHT22;51730;56.950;24.126;2022-09-09T01:07:55;8.90;99.90
65146;DHT22;51730;56.950;24.126;2022-09-09T01:10:42;8.90;99.90
65146;DHT22;51730;56.950;24.126;2022-09-09T01:13:33;8.90;99.90
65146;DHT22;51730;56.950;24.126;2022-09-09T01:16:03;8.80;99.90
65146;DHT22;51730;56.950;24.126;2022-09-09T01:18:41;8.90;99.90
65146;DHT22;51730;56.950;24.126;2022-09-09T01:26:46;8.80;99.90
65146;DHT22;51730;56.950;24.126;2022-09-09T01:29:16;8.70;99.90
65146;DHT22;51730;56.950;24.126;2022-09-09T01:32:35;8.60;99.90
65146;DHT22;51730;56.950;24.126;2022-09-09T01:34:50;8.70;99.90
65146;DHT22;51730;56.950;24.126;2022-09-09T01:37:18;8.70;99.90
65146;DHT22;51730;56.950;24.126;2022-09-09T01:39:45;8.60;99.90
65146;DHT22;51730;56.950;24.126;2022-09-09T01:42:14;8.70;99.90
65146;DHT22;51730;56.950;24.126;2022-09-09T01:44:42;8.70;99.90
65146;DHT22;51730;56.950;24.126;2022-09-09T01:47:09;8.70;99.90
65146;DHT22;51730;56.950;24.126;2022-09-09T01:49:36;8.60;99.90
65146;DHT22;51730;56.950;24.126;2022-09-09T01:52:03;8.60;99.90
65146;DHT22;51730;56.950;24.126;2022-09-09T01:54:31;8.50;99.90
65146;DHT22;51730;56.950;24.126;2022-09-09T01:57:15;8.40;99.90
65146;DHT22;51730;56.950;24.126;2022-09-09T02:03:15;8.50;99.90
65146;DHT22;51730;56.950;24.126;2022-09-09T02:05:52;8.50;99.90
65146;DHT22;51730;56.950;24.126;2022-09-09T02:08:49;8.60;99.90
65146;DHT22;51730;56.950;24.126;2022-09-09T02:11:19;8.50;99.90
65146;DHT22;51730;56.950;24.126;2022-09-09T02:13:48;8.40;99.90
65146;DHT22;51730;56.950;24.126;2022-09-09T02:16:27;8.40;99.90
65146;DHT22;51730;56.950;24.126;2022-09-09T02:19:21;8.50;99.90
65146;DHT22;51730;56.950;24.126;2022-09-09T02:21:54;8.40;99.90
65146;DHT22;51730;56.950;24.126;2022-09-09T02:24:22;8.30;99.90
65146;DHT22;51730;56.950;24.126;2022-09-09T02:26:51;8.40;99.90
65146;DHT22;51730;56.950;24.126;2022-09-09T02:29:23;8.40;99.90
65146;DHT22;51730;56.950;24.126;2022-09-09T02:31:53;8.40;99.90
65146;DHT22;51730;56.950;24.126;2022-09-09T02:34:23;8.40;99.90
65146;DHT22;51730;56.950;24.126;2022-09-09T02:36:53;8.40;99.90
65146;DHT22;51730;56.950;24.126;2022-09-09T02:39:21;8.30;99.90
65146;DHT22;51730;56.950;24.126;2022-09-09T02:41:48;8.20;99.90
65146;DHT22;51730;56.950;24.126;2022-09-09T02:44:17;8.20;99.90
65146;DHT22;51730;56.950;24.126;2022-09-09T02:47:00;8.30;99.90
65146;DHT22;51730;56.950;24.126;2022-09-09T02:50:05;8.30;99.90
65146;DHT22;51730;56.950;24.126;2022-09-09T02:55:16;8.20;99.90
65146;DHT22;51730;56.950;24.126;2022-09-09T02:57:46;8.30;99.90
65146;DHT22;51730;56.950;24.126;2022-09-09T03:00:14;8.20;99.90
65146;DHT22;51730;56.950;24.126;2022-09-09T03:02:41;8.10;99.90
65146;DHT22;51730;56.950;24.126;2022-09-09T03:05:09;8.10;99.90
65146;DHT22;51730;56.950;24.126;2022-09-09T03:07:35;8.10;99.90
65146;DHT22;51730;56.950;24.126;2022-09-09T03:10:02;8.10;99.90
65146;DHT22;51730;56.950;24.126;2022-09-09T03:12:30;8.10;99.90
65146;DHT22;51730;56.950;24.126;2022-09-09T03:14:57;8.10;99.90
65146;DHT22;51730;56.950;24.126;2022-09-09T03:17:24;8.20;99.90
65146;DHT22;51730;56.950;24.126;2022-09-09T03:19:51;8.10;99.90
65146;DHT22;51730;56.950;24.126;2022-09-09T03:22:21;8.00;99.90
65146;DHT22;51730;56.950;24.126;2022-09-09T03:24:48;8.10;99.90
65146;DHT22;51730;56.950;24.126;2022-09-09T03:27:14;8.00;99.90
65146;DHT22;51730;56.950;24.126;2022-09-09T03:29:41;8.00;99.90
65146;DHT22;51730;56.950;24.126;2022-09-09T03:32:08;8.00;99.90
65146;DHT22;51730;56.950;24.126;2022-09-09T03:34:37;8.00;99.90
65146;DHT22;51730;56.950;24.126;2022-09-09T03:37:07;8.00;99.90
65146;DHT22;51730;56.950;24.126;2022-09-09T03:39:33;7.80;99.90
65146;DHT22;51730;56.950;24.126;2022-09-09T03:42:01;7.90;99.90
65146;DHT22;51730;56.950;24.126;2022-09-09T03:44:30;7.90;99.90
65146;DHT22;51730;56.950;24.126;2022-09-09T03:46:57;7.90;99.90
65146;DHT22;51730;56.950;24.126;2022-09-09T03:49:27;7.80;99.90
65146;DHT22;51730;56.950;24.126;2022-09-09T03:51:56;7.80;99.90
65146;DHT22;51730;56.950;24.126;2022-09-09T03:54:24;7.80;99.90
65146;DHT22;51730;56.950;24.126;2022-09-09T03:56:51;7.90;99.90
65146;DHT22;51730;56.950;24.126;2022-09-09T03:59:18;7.90;99.90
65146;DHT22;51730;56.950;24.126;2022-09-09T04:01:45;7.90;99.90
65146;DHT22;51730;56.950;24.126;2022-09-09T04:04:13;7.90;99.90
65146;DHT22;51730;56.950;24.126;2022-09-09T04:06:40;7.70;99.90
65146;DHT22;51730;56.950;24.126;2022-09-09T04:09:07;7.80;99.90
65146;DHT22;51730;56.950;24.126;2022-09-09T04:11:34;7.70;99.90
65146;DHT22;51730;56.950;24.126;2022-09-09T04:14:01;7.70;99.90
65146;DHT22;51730;56.950;24.126;2022-09-09T04:16:28;7.60;99.90
65146;DHT22;51730;56.950;24.126;2022-09-09T04:18:55;7.60;99.90
65146;DHT22;51730;56.950;24.126;2022-09-09T04:21:22;7.70;99.90
65146;DHT22;51730;56.950;24.126;2022-09-09T04:23:49;7.60;99.90
65146;DHT22;51730;56.950;24.126;2022-09-09T04:26:17;7.70;99.90
65146;DHT22;51730;56.950;24.126;2022-09-09T04:28:44;7.70;99.90
65146;DHT22;51730;56.950;24.126;2022-09-09T04:31:19;7.80;99.90
65146;DHT22;51730;56.950;24.126;2022-09-09T04:33:47;7.90;99.90
65146;DHT22;51730;56.950;24.126;2022-09-09T04:36:13;7.80;99.90
65146;DHT22;51730;56.950;24.126;2022-09-09T04:38:40;7.90;99.90
65146;DHT22;51730;56.950;24.126;2022-09-09T04:41:08;7.90;99.90
65146;DHT22;51730;56.950;24.126;2022-09-09T04:43:38;7.90;99.90
65146;DHT22;51730;56.950;24.126;2022-09-09T04:46:06;8.00;99.90
65146;DHT22;51730;56.950;24.126;2022-09-09T04:48:32;8.00;99.90
65146;DHT22;51730;56.950;24.126;2022-09-09T04:51:05;8.10;99.90
65146;DHT22;51730;56.950;24.126;2022-09-09T04:53:32;8.10;99.90
65146;DHT22;51730;56.950;24.126;2022-09-09T04:56:03;8.10;99.90
65146;DHT22;51730;56.950;24.126;2022-09-09T04:58:31;8.10;99.90
65146;DHT22;51730;56.950;24.126;2022-09-09T05:01:28;8.10;99.90
65146;DHT22;51730;56.950;24.126;2022-09-09T05:03:55;8.20;99.90
65146;DHT22;51730;56.950;24.126;2022-09-09T05:06:22;8.30;99.90
65146;DHT22;51730;56.950;24.126;2022-09-09T05:08:50;8.30;99.90
65146;DHT22;51730;56.950;24.126;2022-09-09T05:11:19;8.40;99.90
65146;DHT22;51730;56.950;24.126;2022-09-09T05:13:46;8.40;99.90
65146;DHT22;51730;56.950;24.126;2022-09-09T05:16:14;8.50;99.90
65146;DHT22;51730;56.950;24.126;2022-09-09T05:18:41;8.60;99.90
65146;DHT22;51730;56.950;24.126;2022-09-09T05:21:14;8.60;99.90
65146;DHT22;51730;56.950;24.126;2022-09-09T05:23:41;8.60;99.90
65146;DHT22;51730;56.950;24.126;2022-09-09T05:26:12;8.70;99.90
65146;DHT22;51730;56.950;24.126;2022-09-09T05:28:44;8.70;99.90
65146;DHT22;51730;56.950;24.126;2022-09-09T05:31:11;8.90;99.90
65146;DHT22;51730;56.950;24.126;2022-09-09T05:33:40;8.90;99.90
65146;DHT22;51730;56.950;24.126;2022-09-09T05:36:12;9.00;99.90
65146;DHT22;51730;56.950;24.126;2022-09-09T05:38:42;9.10;99.90
65146;DHT22;51730;56.950;24.126;2022-09-09T05:41:11;9.10;99.90
65146;DHT22;51730;56.950;24.126;2022-09-09T05:43:38;9.20;99.90
65146;DHT22;51730;56.950;24.126;2022-09-09T05:46:07;9.30;99.90
65146;DHT22;51730;56.950;24.126;2022-09-09T05:48:37;9.30;99.90
65146;DHT22;51730;56.950;24.126;2022-09-09T05:51:05;9.30;99.90
65146;DHT22;51730;56.950;24.126;2022-09-09T05:53:33;9.50;99.90
65146;DHT22;51730;56.950;24.126;2022-09-09T05:56:08;9.60;99.90
65146;DHT22;51730;56.950;24.126;2022-09-09T05:58:38;9.60;99.90
65146;DHT22;51730;56.950;24.126;2022-09-09T06:01:06;9.60;99.90
65146;DHT22;51730;56.950;24.126;2022-09-09T06:03:35;9.70;99.90
65146;DHT22;51730;56.950;24.126;2022-09-09T06:06:04;9.80;99.90
65146;DHT22;51730;56.950;24.126;2022-09-09T06:08:36;9.80;99.90
65146;DHT22;51730;56.950;24.126;2022-09-09T06:11:09;9.90;99.90
65146;DHT22;51730;56.950;24.126;2022-09-09T06:13:38;10.10;99.90
65146;DHT22;51730;56.950;24.126;2022-09-09T06:16:12;10.10;99.90
65146;DHT22;51730;56.950;24.126;2022-09-09T06:18:40;10.10;99.90
65146;DHT22;51730;56.950;24.126;2022-09-09T06:21:11;10.30;99.90
65146;DHT22;51730;56.950;24.126;2022-09-09T06:23:41;10.40;99.90
65146;DHT22;51730;56.950;24.126;2022-09-09T06:26:13;10.40;99.90
65146;DHT22;51730;56.950;24.126;2022-09-09T06:28:40;10.60;99.90
65146;DHT22;51730;56.950;24.126;2022-09-09T06:31:11;10.70;99.90
65146;DHT22;51730;56.950;24.126;2022-09-09T06:33:40;10.80;99.90
65146;DHT22;51730;56.950;24.126;2022-09-09T06:38:45;11.00;99.90
65146;DHT22;51730;56.950;24.126;2022-09-09T06:41:15;11.00;99.90
65146;DHT22;51730;56.950;24.126;2022-09-09T06:43:43;11.10;98.60
65146;DHT22;51730;56.950;24.126;2022-09-09T06:46:18;11.30;96.80
65146;DHT22;51730;56.950;24.126;2022-09-09T06:48:46;11.30;97.30
65146;DHT22;51730;56.950;24.126;2022-09-09T06:51:20;11.50;93.90
65146;DHT22;51730;56.950;24.126;2022-09-09T06:53:52;11.50;94.10
65146;DHT22;51730;56.950;24.126;2022-09-09T06:58:56;11.60;92.70
65146;DHT22;51730;56.950;24.126;2022-09-09T07:01:28;11.60;91.60
65146;DHT22;51730;56.950;24.126;2022-09-09T07:03:58;11.60;91.60
65146;DHT22;51730;56.950;24.126;2022-09-09T07:06:34;11.80;95.20
65146;DHT22;51730;56.950;24.126;2022-09-09T07:09:03;11.90;89.40
65146;DHT22;51730;56.950;24.126;2022-09-09T07:11:33;11.90;88.40
65146;DHT22;51730;56.950;24.126;2022-09-09T07:14:01;12.10;86.80
65146;DHT22;51730;56.950;24.126;2022-09-09T07:16:28;12.10;88.60
65146;DHT22;51730;56.950;24.126;2022-09-09T07:18:56;12.20;83.00
65146;DHT22;51730;56.950;24.126;2022-09-09T07:21:28;12.30;78.50
65146;DHT22;51730;56.950;24.126;2022-09-09T07:23:56;12.30;78.40
65146;DHT22;51730;56.950;24.126;2022-09-09T07:26:26;12.40;79.10
65146;DHT22;51730;56.950;24.126;2022-09-09T07:28:54;12.40;81.10
65146;DHT22;51730;56.950;24.126;2022-09-09T07:31:42;12.60;79.60
65146;DHT22;51730;56.950;24.126;2022-09-09T07:34:09;12.60;76.50
65146;DHT22;51730;56.950;24.126;2022-09-09T07:36:38;12.50;78.30
65146;DHT22;51730;56.950;24.126;2022-09-09T07:39:08;12.60;78.50
65146;DHT22;51730;56.950;24.126;2022-09-09T07:41:41;12.70;79.30
65146;DHT22;51730;56.950;24.126;2022-09-09T07:44:11;12.70;75.60
65146;DHT22;51730;56.950;24.126;2022-09-09T07:46:38;12.70;74.10
65146;DHT22;51730;56.950;24.126;2022-09-09T07:49:09;12.90;71.50
65146;DHT22;51730;56.950;24.126;2022-09-09T07:51:39;12.90;71.60
65146;DHT22;51730;56.950;24.126;2022-09-09T07:54:10;13.00;70.10
65146;DHT22;51730;56.950;24.126;2022-09-09T07:56:39;13.00;70.60
65146;DHT22;51730;56.950;24.126;2022-09-09T07:59:06;13.20;68.30
65146;DHT22;51730;56.950;24.126;2022-09-09T08:01:38;13.20;67.60
65146;DHT22;51730;56.950;24.126;2022-09-09T08:04:12;13.10;68.20
65146;DHT22;51730;56.950;24.126;2022-09-09T08:06:49;13.20;66.50
65146;DHT22;51730;56.950;24.126;2022-09-09T08:09:16;13.20;64.90
65146;DHT22;51730;56.950;24.126;2022-09-09T08:11:44;13.30;65.70
65146;DHT22;51730;56.950;24.126;2022-09-09T08:14:12;13.40;65.50
65146;DHT22;51730;56.950;24.126;2022-09-09T08:16:42;13.40;64.70
65146;DHT22;51730;56.950;24.126;2022-09-09T08:19:09;13.40;64.70
65146;DHT22;51730;56.950;24.126;2022-09-09T08:21:37;13.40;63.40
65146;DHT22;51730;56.950;24.126;2022-09-09T08:24:08;13.50;62.70
65146;DHT22;51730;56.950;24.126;2022-09-09T08:26:40;13.50;65.00
65146;DHT22;51730;56.950;24.126;2022-09-09T08:29:12;13.50;63.60
65146;DHT22;51730;56.950;24.126;2022-09-09T08:34:38;13.60;63.80
65146;DHT22;51730;56.950;24.126;2022-09-09T08:37:06;13.80;65.60
65146;DHT22;51730;56.950;24.126;2022-09-09T08:39:33;13.70;65.10
65146;DHT22;51730;56.950;24.126;2022-09-09T08:50:22;14.20;62.40
65146;DHT22;51730;56.950;24.126;2022-09-09T09:03:35;14.30;61.70
65146;DHT22;51730;56.950;24.126;2022-09-09T09:11:04;14.40;90.00
65146;DHT22;51730;56.950;24.126;2022-09-09T09:16:39;14.60;61.70
65146;DHT22;51730;56.950;24.126;2022-09-09T09:19:14;14.30;61.00
65146;DHT22;51730;56.950;24.126;2022-09-09T09:21:42;14.70;65.40
65146;DHT22;51730;56.950;24.126;2022-09-09T09:24:23;14.70;61.80
65146;DHT22;51730;56.950;24.126;2022-09-09T09:26:52;14.60;61.90
65146;DHT22;51730;56.950;24.126;2022-09-09T09:29:20;14.60;61.00
65146;DHT22;51730;56.950;24.126;2022-09-09T09:31:56;14.80;62.20
65146;DHT22;51730;56.950;24.126;2022-09-09T09:34:25;14.80;60.70
65146;DHT22;51730;56.950;24.126;2022-09-09T09:36:58;14.90;58.30
65146;DHT22;51730;56.950;24.126;2022-09-09T09:39:31;14.90;60.30
65146;DHT22;51730;56.950;24.126;2022-09-09T09:42:22;14.90;60.70
65146;DHT22;51730;56.950;24.126;2022-09-09T09:44:50;14.70;58.10
65146;DHT22;51730;56.950;24.126;2022-09-09T09:47:19;14.80;58.00
65146;DHT22;51730;56.950;24.126;2022-09-09T09:49:55;14.90;58.40
65146;DHT22;51730;56.950;24.126;2022-09-09T09:52:24;14.90;56.30
65146;DHT22;51730;56.950;24.126;2022-09-09T09:54:53;14.90;56.00
65146;DHT22;51730;56.950;24.126;2022-09-09T09:57:25;14.90;56.50
65146;DHT22;51730;56.950;24.126;2022-09-09T10:00:20;14.70;56.80
65146;DHT22;51730;56.950;24.126;2022-09-09T10:02:48;14.60;57.50
65146;DHT22;51730;56.950;24.126;2022-09-09T10:08:10;15.20;57.20
65146;DHT22;51730;56.950;24.126;2022-09-09T10:17:38;15.10;57.10
65146;DHT22;51730;56.950;24.126;2022-09-09T10:19:32;15.10;57.20
65146;DHT22;51730;56.950;24.126;2022-09-09T10:22:36;15.10;56.50
65146;DHT22;51730;56.950;24.126;2022-09-09T10:41:13;15.40;56.70
65146;DHT22;51730;56.950;24.126;2022-09-09T10:55:18;15.20;56.70
65146;DHT22;51730;56.950;24.126;2022-09-09T10:57:50;15.10;57.40
65146;DHT22;51730;56.950;24.126;2022-09-09T11:00:24;15.10;57.50
65146;DHT22;51730;56.950;24.126;2022-09-09T11:03:02;15.10;57.20
65146;DHT22;51730;56.950;24.126;2022-09-09T11:05:31;15.10;57.30
65146;DHT22;51730;56.950;24.126;2022-09-09T11:08:19;15.10;56.30
65146;DHT22;51730;56.950;24.126;2022-09-09T11:11:02;15.10;56.50
65146;DHT22;51730;56.950;24.126;2022-09-09T11:16:33;15.30;58.20
65146;DHT22;51730;56.950;24.126;2022-09-09T11:21:46;15.20;55.10
65146;DHT22;51730;56.950;24.126;2022-09-09T11:27:12;15.20;55.70
65146;DHT22;51730;56.950;24.126;2022-09-09T11:30:15;15.30;56.80
65146;DHT22;51730;56.950;24.126;2022-09-09T11:36:16;15.30;56.70
65146;DHT22;51730;56.950;24.126;2022-09-09T11:38:56;15.40;55.80
65146;DHT22;51730;56.950;24.126;2022-09-09T11:41:35;15.40;55.80
65146;DHT22;51730;56.950;24.126;2022-09-09T11:44:12;15.50;56.60
65146;DHT22;51730;56.950;24.126;2022-09-09T11:46:41;15.60;54.20
65146;DHT22;51730;56.950;24.126;2022-09-09T11:49:40;15.60;55.40
65146;DHT22;51730;56.950;24.126;2022-09-09T11:52:24;15.70;53.30
65146;DHT22;51730;56.950;24.126;2022-09-09T11:54:55;15.50;53.50
65146;DHT22;51730;56.950;24.126;2022-09-09T11:57:32;15.50;54.40
65146;DHT22;51730;56.950;24.126;2022-09-09T12:00:01;15.50;54.80
65146;DHT22;51730;56.950;24.126;2022-09-09T12:02:29;15.60;53.90
65146;DHT22;51730;56.950;24.126;2022-09-09T12:05:11;15.50;56.30
65146;DHT22;51730;56.950;24.126;2022-09-09T12:07:42;15.70;54.50
65146;DHT22;51730;56.950;24.126;2022-09-09T12:12:49;15.70;53.30
65146;DHT22;51730;56.950;24.126;2022-09-09T12:15:17;15.80;53.60
65146;DHT22;51730;56.950;24.126;2022-09-09T12:17:50;15.80;53.90
65146;DHT22;51730;56.950;24.126;2022-09-09T12:26:10;16.00;52.60
65146;DHT22;51730;56.950;24.126;2022-09-09T12:34:34;16.00;53.10
65146;DHT22;51730;56.950;24.126;2022-09-09T12:39:55;16.10;51.30
65146;DHT22;51730;56.950;24.126;2022-09-09T12:42:24;16.30;51.30
65146;DHT22;51730;56.950;24.126;2022-09-09T12:45:01;16.20;52.40
65146;DHT22;51730;56.950;24.126;2022-09-09T12:50:27;16.00;53.30
65146;DHT22;51730;56.950;24.126;2022-09-09T12:52:57;16.20;52.10
65146;DHT22;51730;56.950;24.126;2022-09-09T12:55:28;16.20;52.10
65146;DHT22;51730;56.950;24.126;2022-09-09T12:57:58;16.20;52.20
65146;DHT22;51730;56.950;24.126;2022-09-09T13:00:26;16.20;51.20
65146;DHT22;51730;56.950;24.126;2022-09-09T13:02:56;16.10;52.00
65146;DHT22;51730;56.950;24.126;2022-09-09T13:05:28;16.10;51.80
65146;DHT22;51730;56.950;24.126;2022-09-09T13:08:09;16.20;51.10
65146;DHT22;51730;56.950;24.126;2022-09-09T13:10:46;16.00;53.60
65146;DHT22;51730;56.950;24.126;2022-09-09T13:13:37;16.20;51.80
65146;DHT22;51730;56.950;24.126;2022-09-09T13:16:17;16.30;51.20
65146;DHT22;51730;56.950;24.126;2022-09-09T13:18:45;16.30;52.50
65146;DHT22;51730;56.950;24.126;2022-09-09T13:21:13;16.30;54.70
65146;DHT22;51730;56.950;24.126;2022-09-09T13:23:40;16.20;55.40
65146;DHT22;51730;56.950;24.126;2022-09-09T13:26:25;16.30;54.70
65146;DHT22;51730;56.950;24.126;2022-09-09T13:28:53;16.40;52.10
65146;DHT22;51730;56.950;24.126;2022-09-09T13:31:24;16.40;54.40
65146;DHT22;51730;56.950;24.126;2022-09-09T13:33:54;16.50;54.30
65146;DHT22;51730;56.950;24.126;2022-09-09T13:36:32;16.40;53.50
65146;DHT22;51730;56.950;24.126;2022-09-09T13:39:03;16.20;53.30
65146;DHT22;51730;56.950;24.126;2022-09-09T13:41:34;16.20;52.30
65146;DHT22;51730;56.950;24.126;2022-09-09T13:44:05;16.40;52.10
65146;DHT22;51730;56.950;24.126;2022-09-09T13:46:40;16.30;56.50
65146;DHT22;51730;56.950;24.126;2022-09-09T13:51:40;16.50;53.20
65146;DHT22;51730;56.950;24.126;2022-09-09T13:54:10;16.50;52.60
65146;DHT22;51730;56.950;24.126;2022-09-09T13:56:38;16.50;51.20
65146;DHT22;51730;56.950;24.126;2022-09-09T13:59:10;16.60;51.70
65146;DHT22;51730;56.950;24.126;2022-09-09T14:01:37;16.30;52.20
65146;DHT22;51730;56.950;24.126;2022-09-09T14:04:04;16.30;52.60
65146;DHT22;51730;56.950;24.126;2022-09-09T14:06:36;16.30;52.80
65146;DHT22;51730;56.950;24.126;2022-09-09T14:09:07;16.30;54.40
65146;DHT22;51730;56.950;24.126;2022-09-09T14:11:34;16.40;52.60
65146;DHT22;51730;56.950;24.126;2022-09-09T14:14:01;16.50;53.20
65146;DHT22;51730;56.950;24.126;2022-09-09T14:16:28;16.50;53.10
65146;DHT22;51730;56.950;24.126;2022-09-09T14:18:55;16.50;52.70
65146;DHT22;51730;56.950;24.126;2022-09-09T14:21:23;16.40;53.60
65146;DHT22;51730;56.950;24.126;2022-09-09T14:23:51;16.50;52.50
65146;DHT22;51730;56.950;24.126;2022-09-09T14:26:23;16.40;52.20
65146;DHT22;51730;56.950;24.126;2022-09-09T14:28:50;16.40;52.20
65146;DHT22;51730;56.950;24.126;2022-09-09T14:31:23;16.30;51.30
65146;DHT22;51730;56.950;24.126;2022-09-09T14:33:50;16.40;51.40
65146;DHT22;51730;56.950;24.126;2022-09-09T14:36:17;16.50;53.40
65146;DHT22;51730;56.950;24.126;2022-09-09T14:38:45;16.60;52.60
65146;DHT22;51730;56.950;24.126;2022-09-09T14:41:14;16.70;51.40
65146;DHT22;51730;56.950;24.126;2022-09-09T14:43:44;16.70;50.80
65146;DHT22;51730;56.950;24.126;2022-09-09T14:46:16;16.50;52.40
65146;DHT22;51730;56.950;24.126;2022-09-09T14:48:43;16.60;52.40
65146;DHT22;51730;56.950;24.126;2022-09-09T14:51:18;16.70;53.20
65146;DHT22;51730;56.950;24.126;2022-09-09T14:53:46;16.90;50.90
65146;DHT22;51730;56.950;24.126;2022-09-09T14:56:16;17.00;51.20
65146;DHT22;51730;56.950;24.126;2022-09-09T14:58:44;17.20;51.60
65146;DHT22;51730;56.950;24.126;2022-09-09T15:01:13;17.40;51.00
65146;DHT22;51730;56.950;24.126;2022-09-09T15:03:42;17.10;50.70
65146;DHT22;51730;56.950;24.126;2022-09-09T15:06:12;16.90;53.80
65146;DHT22;51730;56.950;24.126;2022-09-09T15:08:42;16.90;51.20
65146;DHT22;51730;56.950;24.126;2022-09-09T15:11:10;17.10;51.60
65146;DHT22;51730;56.950;24.126;2022-09-09T15:13:39;17.50;49.80
65146;DHT22;51730;56.950;24.126;2022-09-09T15:16:08;17.80;50.20
65146;DHT22;51730;56.950;24.126;2022-09-09T15:18:36;17.60;49.70
65146;DHT22;51730;56.950;24.126;2022-09-09T15:21:03;17.60;49.90
65146;DHT22;51730;56.950;24.126;2022-09-09T15:23:32;17.10;50.80
65146;DHT22;51730;56.950;24.126;2022-09-09T15:26:00;17.00;52.20
65146;DHT22;51730;56.950;24.126;2022-09-09T15:28:27;16.80;54.00
65146;DHT22;51730;56.950;24.126;2022-09-09T15:30:54;16.50;53.40
65146;DHT22;51730;56.950;24.126;2022-09-09T15:33:22;16.50;53.10
65146;DHT22;51730;56.950;24.126;2022-09-09T15:35:49;16.50;53.60
65146;DHT22;51730;56.950;24.126;2022-09-09T15:38:16;16.50;55.20
65146;DHT22;51730;56.950;24.126;2022-09-09T15:40:44;16.50;53.90
65146;DHT22;51730;56.950;24.126;2022-09-09T15:43:11;16.50;54.30
65146;DHT22;51730;56.950;24.126;2022-09-09T15:45:39;16.50;53.20
65146;DHT22;51730;56.950;24.126;2022-09-09T15:48:06;16.40;54.10
65146;DHT22;51730;56.950;24.126;2022-09-09T15:50:34;16.30;54.40
65146;DHT22;51730;56.950;24.126;2022-09-09T15:53:00;16.20;54.10
65146;DHT22;51730;56.950;24.126;2022-09-09T15:55:28;15.90;56.30
65146;DHT22;51730;56.950;24.126;2022-09-09T15:57:55;15.80;55.90
65146;DHT22;51730;56.950;24.126;2022-09-09T16:00:24;15.90;55.20
65146;DHT22;51730;56.950;24.126;2022-09-09T16:02:51;15.90;55.40
65146;DHT22;51730;56.950;24.126;2022-09-09T16:05:19;15.80;56.80
65146;DHT22;51730;56.950;24.126;2022-09-09T16:07:47;15.70;58.30
65146;DHT22;51730;56.950;24.126;2022-09-09T16:10:14;15.70;56.60
65146;DHT22;51730;56.950;24.126;2022-09-09T16:12:41;15.60;57.60
65146;DHT22;51730;56.950;24.126;2022-09-09T16:15:09;15.40;59.30
65146;DHT22;51730;56.950;24.126;2022-09-09T16:17:36;15.30;59.70
65146;DHT22;51730;56.950;24.126;2022-09-09T16:20:05;15.10;59.30
65146;DHT22;51730;56.950;24.126;2022-09-09T16:22:37;15.10;61.80
65146;DHT22;51730;56.950;24.126;2022-09-09T16:25:04;15.20;58.80
65146;DHT22;51730;56.950;24.126;2022-09-09T16:27:31;15.10;60.00
65146;DHT22;51730;56.950;24.126;2022-09-09T16:29:58;15.00;60.10
65146;DHT22;51730;56.950;24.126;2022-09-09T16:32:25;14.90;62.50
65146;DHT22;51730;56.950;24.126;2022-09-09T16:34:52;14.80;64.40
65146;DHT22;51730;56.950;24.126;2022-09-09T16:37:19;14.70;64.80
65146;DHT22;51730;56.950;24.126;2022-09-09T16:39:46;14.70;64.30
65146;DHT22;51730;56.950;24.126;2022-09-09T16:42:13;14.50;62.90
65146;DHT22;51730;56.950;24.126;2022-09-09T16:44:40;14.50;63.20
65146;DHT22;51730;56.950;24.126;2022-09-09T16:47:07;14.50;65.60
65146;DHT22;51730;56.950;24.126;2022-09-09T16:49:34;14.60;66.40
65146;DHT22;51730;56.950;24.126;2022-09-09T16:52:01;14.50;65.80
65146;DHT22;51730;56.950;24.126;2022-09-09T16:54:28;14.30;66.50
65146;DHT22;51730;56.950;24.126;2022-09-09T16:56:56;14.30;65.20
65146;DHT22;51730;56.950;24.126;2022-09-09T16:59:22;14.20;66.60
65146;DHT22;51730;56.950;24.126;2022-09-09T17:01:51;14.30;68.10
65146;DHT22;51730;56.950;24.126;2022-09-09T17:04:21;14.20;70.10
65146;DHT22;51730;56.950;24.126;2022-09-09T17:06:52;14.10;70.60
65146;DHT22;51730;56.950;24.126;2022-09-09T17:09:20;14.00;68.40
65146;DHT22;51730;56.950;24.126;2022-09-09T17:11:48;13.90;68.90
65146;DHT22;51730;56.950;24.126;2022-09-09T17:14:18;13.90;71.00
65146;DHT22;51730;56.950;24.126;2022-09-09T17:16:45;13.90;71.10
65146;DHT22;51730;56.950;24.126;2022-09-09T17:19:14;13.90;73.00
65146;DHT22;51730;56.950;24.126;2022-09-09T17:21:41;13.80;72.10
65146;DHT22;51730;56.950;24.126;2022-09-09T17:24:28;13.80;70.90
65146;DHT22;51730;56.950;24.126;2022-09-09T17:26:56;13.70;79.20
65146;DHT22;51730;56.950;24.126;2022-09-09T17:29:24;13.70;73.60
65146;DHT22;51730;56.950;24.126;2022-09-09T17:31:51;13.70;73.10
65146;DHT22;51730;56.950;24.126;2022-09-09T17:34:18;13.60;76.40
65146;DHT22;51730;56.950;24.126;2022-09-09T17:36:45;13.60;79.70
65146;DHT22;51730;56.950;24.126;2022-09-09T17:39:12;13.50;74.60
65146;DHT22;51730;56.950;24.126;2022-09-09T17:41:39;13.50;77.60
65146;DHT22;51730;56.950;24.126;2022-09-09T17:44:07;13.40;79.50
65146;DHT22;51730;56.950;24.126;2022-09-09T17:46:38;13.40;76.60
65146;DHT22;51730;56.950;24.126;2022-09-09T17:49:09;13.30;78.80
65146;DHT22;51730;56.950;24.126;2022-09-09T17:51:36;13.40;80.50
65146;DHT22;51730;56.950;24.126;2022-09-09T17:54:10;13.40;77.40
65146;DHT22;51730;56.950;24.126;2022-09-09T17:56:39;13.30;76.80
65146;DHT22;51730;56.950;24.126;2022-09-09T17:59:09;13.30;80.70
65146;DHT22;51730;56.950;24.126;2022-09-09T18:01:38;13.20;80.00
65146;DHT22;51730;56.950;24.126;2022-09-09T18:04:08;13.20;79.20
65146;DHT22;51730;56.950;24.126;2022-09-09T18:06:40;13.20;81.50